sensor_id;sensor_type;location;lat;lon;timestamp;P1;durP1;ratioP1;P2;durP2;ratioP2
23206;SDS011;11773;52.570;13.052;2023-06-24T00:00:16;0.90;;;0.90;;
23206;SDS011;11773;52.570;13.052;2023-06-24T00:02:46;1.00;;;1.00;;
23206;SDS011;11773;52.570;13.052;2023-06-24T00:05:17;0.70;;;0.70;;
23206;SDS011;11773;52.570;13.052;2023-06-24T00:07:48;0.77;;;0.77;;
23206;SDS011;11773;52.570;13.052;2023-06-24T00:10:17;0.90;;;0.90;;
23206;SDS011;11773;52.570;13.052;2023-06-24T00:12:47;0.70;;;0.70;;
23206;SDS011;11773;52.570;13.052;2023-06-24T00:15:17;1.57;;;0.83;;
23206;SDS011;11773;52.570;13.052;2023-06-24T00:17:46;0.80;;;0.80;;
23206;SDS011;11773;52.570;13.052;2023-06-24T00:20:17;1.07;;;1.00;;
23206;SDS011;11773;52.570;13.052;2023-06-24T00:22:47;0.80;;;0.80;;
23206;SDS011;11773;52.570;13.052;2023-06-24T00:25:17;1.10;;;1.10;;
23206;SDS011;11773;52.570;13.052;2023-06-24T00:27:46;0.93;;;0.93;;
23206;SDS011;11773;52.570;13.052;2023-06-24T00:30:16;1.20;;;1.10;;
23206;SDS011;11773;52.570;13.052;2023-06-24T00:32:45;0.80;;;0.80;;
23206;SDS011;11773;52.570;13.052;2023-06-24T00:35:15;0.93;;;0.93;;
23206;SDS011;11773;52.570;13.052;2023-06-24T00:37:45;0.90;;;0.90;;
23206;SDS011;11773;52.570;13.052;2023-06-24T00:40:16;0.90;;;0.90;;
23206;SDS011;11773;52.570;13.052;2023-06-24T00:42:45;1.17;;;1.10;;
23206;SDS011;11773;52.570;13.052;2023-06-24T00:45:15;1.00;;;0.80;;
23206;SDS011;11773;52.570;13.052;2023-06-24T00:47:45;0.93;;;0.93;;
23206;SDS011;11773;52.570;13.052;2023-06-24T00:50:15;0.90;;;0.90;;
23206;SDS011;11773;52.570;13.052;2023-06-24T00:52:45;1.20;;;1.20;;
23206;SDS011;11773;52.570;13.052;2023-06-24T00:55:16;1.00;;;1.00;;
23206;SDS011;11773;52.570;13.052;2023-06-24T00:57:51;1.10;;;1.00;;
23206;SDS011;11773;52.570;13.052;2023-06-24T01:00:21;1.33;;;1.23;;
23206;SDS011;11773;52.570;13.052;2023-06-24T01:02:51;0.90;;;0.90;;
23206;SDS011;11773;52.570;13.052;2023-06-24T01:05:21;1.03;;;1.03;;
23206;SDS011;11773;52.570;13.052;2023-06-24T01:07:52;1.00;;;1.00;;
23206;SDS011;11773;52.570;13.052;2023-06-24T01:10:23;1.10;;;1.00;;
23206;SDS011;11773;52.570;13.052;2023-06-24T01:12:53;1.80;;;1.10;;
23206;SDS011;11773;52.570;13.052;2023-06-24T01:15:23;1.00;;;0.90;;
23206;SDS011;11773;52.570;13.052;2023-06-24T01:17:57;0.90;;;0.90;;
23206;SDS011;11773;52.570;13.052;2023-06-24T01:24:24;0.90;;;0.90;;
23206;SDS011;11773;52.570;13.052;2023-06-24T01:30:12;0.70;;;0.70;;
23206;SDS011;11773;52.570;13.052;2023-06-24T01:32:48;1.37;;;1.10;;
23206;SDS011;11773;52.570;13.052;2023-06-24T01:35:31;1.17;;;1.07;;
23206;SDS011;11773;52.570;13.052;2023-06-24T01:38:07;0.87;;;0.87;;
23206;SDS011;11773;52.570;13.052;2023-06-24T01:40:42;1.10;;;1.00;;
23206;SDS011;11773;52.570;13.052;2023-06-24T01:43:14;0.80;;;0.80;;
23206;SDS011;11773;52.570;13.052;2023-06-24T01:45:45;0.90;;;0.90;;
23206;SDS011;11773;52.570;13.052;2023-06-24T01:48:22;0.83;;;0.83;;
23206;SDS011;11773;52.570;13.052;2023-06-24T01:50:59;1.23;;;1.13;;
23206;SDS011;11773;52.570;13.052;2023-06-24T01:53:38;0.83;;;0.83;;
23206;SDS011;11773;52.570;13.052;2023-06-24T01:56:12;0.83;;;0.83;;
23206;SDS011;11773;52.570;13.052;2023-06-24T01:58:45;1.07;;;1.07;;
23206;SDS011;11773;52.570;13.052;2023-06-24T02:01:17;0.97;;;0.97;;
23206;SDS011;11773;52.570;13.052;2023-06-24T02:03:48;1.40;;;1.30;;
23206;SDS011;11773;52.570;13.052;2023-06-24T02:06:19;0.87;;;0.87;;
23206;SDS011;11773;52.570;13.052;2023-06-24T02:08:52;1.00;;;0.90;;
23206;SDS011;11773;52.570;13.052;2023-06-24T02:11:25;1.30;;;1.20;;
23206;SDS011;11773;52.570;13.052;2023-06-24T02:13:58;1.10;;;1.00;;
23206;SDS011;11773;52.570;13.052;2023-06-24T02:16:31;1.17;;;1.03;;
23206;SDS011;11773;52.570;13.052;2023-06-24T02:19:04;1.17;;;1.00;;
23206;SDS011;11773;52.570;13.052;2023-06-24T02:21:39;0.90;;;0.90;;
23206;SDS011;11773;52.570;13.052;2023-06-24T02:24:11;1.30;;;1.20;;
23206;SDS011;11773;52.570;13.052;2023-06-24T02:26:41;1.33;;;1.23;;
23206;SDS011;11773;52.570;13.052;2023-06-24T02:29:12;1.10;;;1.10;;
23206;SDS011;11773;52.570;13.052;2023-06-24T02:31:42;0.97;;;0.97;;
23206;SDS011;11773;52.570;13.052;2023-06-24T02:34:12;1.00;;;1.00;;
23206;SDS011;11773;52.570;13.052;2023-06-24T02:36:44;1.50;;;0.90;;
23206;SDS011;11773;52.570;13.052;2023-06-24T02:39:13;0.90;;;0.90;;
23206;SDS011;11773;52.570;13.052;2023-06-24T02:41:43;1.00;;;1.00;;
23206;SDS011;11773;52.570;13.052;2023-06-24T02:44:15;1.83;;;1.10;;
23206;SDS011;11773;52.570;13.052;2023-06-24T02:46:45;1.13;;;1.03;;
23206;SDS011;11773;52.570;13.052;2023-06-24T02:49:17;0.70;;;0.70;;
23206;SDS011;11773;52.570;13.052;2023-06-24T02:51:48;1.13;;;1.07;;
23206;SDS011;11773;52.570;13.052;2023-06-24T02:54:18;1.13;;;1.10;;
23206;SDS011;11773;52.570;13.052;2023-06-24T02:56:48;1.07;;;1.07;;
23206;SDS011;11773;52.570;13.052;2023-06-24T02:59:18;1.20;;;1.10;;
23206;SDS011;11773;52.570;13.052;2023-06-24T03:01:49;1.33;;;1.23;;
23206;SDS011;11773;52.570;13.052;2023-06-24T03:04:21;1.30;;;1.20;;
23206;SDS011;11773;52.570;13.052;2023-06-24T03:06:51;1.27;;;0.90;;
23206;SDS011;11773;52.570;13.052;2023-06-24T03:09:21;1.10;;;1.10;;
23206;SDS011;11773;52.570;13.052;2023-06-24T03:11:51;1.03;;;1.00;;
23206;SDS011;11773;52.570;13.052;2023-06-24T03:14:21;0.93;;;0.93;;
23206;SDS011;11773;52.570;13.052;2023-06-24T03:16:50;1.33;;;1.10;;
23206;SDS011;11773;52.570;13.052;2023-06-24T03:19:20;1.07;;;1.07;;
23206;SDS011;11773;52.570;13.052;2023-06-24T03:21:50;1.50;;;1.40;;
23206;SDS011;11773;52.570;13.052;2023-06-24T03:24:19;1.03;;;1.03;;
23206;SDS011;11773;52.570;13.052;2023-06-24T03:26:49;1.30;;;1.00;;
23206;SDS011;11773;52.570;13.052;2023-06-24T03:29:20;0.97;;;0.97;;
23206;SDS011;11773;52.570;13.052;2023-06-24T03:31:51;0.90;;;0.90;;
23206;SDS011;11773;52.570;13.052;2023-06-24T03:34:20;1.20;;;1.10;;
23206;SDS011;11773;52.570;13.052;2023-06-24T03:36:50;1.00;;;1.00;;
23206;SDS011;11773;52.570;13.052;2023-06-24T03:39:21;1.27;;;1.17;;
23206;SDS011;11773;52.570;13.052;2023-06-24T03:41:50;1.30;;;1.20;;
23206;SDS011;11773;52.570;13.052;2023-06-24T03:44:20;1.00;;;1.00;;
23206;SDS011;11773;52.570;13.052;2023-06-24T03:46:50;1.20;;;1.10;;
23206;SDS011;11773;52.570;13.052;2023-06-24T03:49:19;1.23;;;1.17;;
23206;SDS011;11773;52.570;13.052;2023-06-24T03:51:49;1.50;;;1.40;;
23206;SDS011;11773;52.570;13.052;2023-06-24T03:54:18;1.67;;;1.23;;
23206;SDS011;11773;52.570;13.052;2023-06-24T03:56:48;1.50;;;1.40;;
23206;SDS011;11773;52.570;13.052;2023-06-24T03:59:18;1.23;;;1.17;;
23206;SDS011;11773;52.570;13.052;2023-06-24T04:01:47;1.00;;;1.00;;
23206;SDS011;11773;52.570;13.052;2023-06-24T04:04:18;1.03;;;1.03;;
23206;SDS011;11773;52.570;13.052;2023-06-24T04:06:49;1.20;;;1.10;;
23206;SDS011;11773;52.570;13.052;2023-06-24T04:09:18;1.37;;;1.27;;
23206;SDS011;11773;52.570;13.052;2023-06-24T04:11:49;1.40;;;1.30;;
23206;SDS011;11773;52.570;13.052;2023-06-24T04:14:19;1.43;;;1.33;;
23206;SDS011;11773;52.570;13.052;2023-06-24T04:16:48;1.87;;;1.77;;
23206;SDS011;11773;52.570;13.052;2023-06-24T04:19:18;1.63;;;1.53;;
23206;SDS011;11773;52.570;13.052;2023-06-24T04:21:48;1.57;;;1.47;;
23206;SDS011;11773;52.570;13.052;2023-06-24T04:24:17;1.60;;;1.50;;
23206;SDS011;11773;52.570;13.052;2023-06-24T04:26:47;1.90;;;1.80;;
23206;SDS011;11773;52.570;13.052;2023-06-24T04:29:17;1.47;;;1.37;;
23206;SDS011;11773;52.570;13.052;2023-06-24T04:31:46;1.87;;;1.77;;
23206;SDS011;11773;52.570;13.052;2023-06-24T04:34:16;1.40;;;1.30;;
23206;SDS011;11773;52.570;13.052;2023-06-24T04:36:46;1.90;;;1.80;;
23206;SDS011;11773;52.570;13.052;2023-06-24T04:39:15;2.20;;;1.53;;
23206;SDS011;11773;52.570;13.052;2023-06-24T04:41:45;2.43;;;2.23;;
23206;SDS011;11773;52.570;13.052;2023-06-24T04:44:15;1.70;;;1.60;;
23206;SDS011;11773;52.570;13.052;2023-06-24T04:46:44;2.70;;;2.07;;
23206;SDS011;11773;52.570;13.052;2023-06-24T04:49:14;1.90;;;1.80;;
23206;SDS011;11773;52.570;13.052;2023-06-24T04:51:43;1.90;;;1.80;;
23206;SDS011;11773;52.570;13.052;2023-06-24T04:54:13;3.20;;;1.80;;
23206;SDS011;11773;52.570;13.052;2023-06-24T04:56:43;2.33;;;2.13;;
23206;SDS011;11773;52.570;13.052;2023-06-24T04:59:15;1.83;;;1.73;;
23206;SDS011;11773;52.570;13.052;2023-06-24T05:01:45;2.40;;;2.20;;
23206;SDS011;11773;52.570;13.052;2023-06-24T05:04:14;1.90;;;1.80;;
23206;SDS011;11773;52.570;13.052;2023-06-24T05:06:44;2.50;;;2.30;;
23206;SDS011;11773;52.570;13.052;2023-06-24T05:09:14;1.97;;;1.87;;
23206;SDS011;11773;52.570;13.052;2023-06-24T05:11:44;2.70;;;2.07;;
23206;SDS011;11773;52.570;13.052;2023-06-24T05:14:13;1.67;;;1.57;;
23206;SDS011;11773;52.570;13.052;2023-06-24T05:16:43;2.30;;;2.10;;
23206;SDS011;11773;52.570;13.052;2023-06-24T05:19:12;2.93;;;2.50;;
23206;SDS011;11773;52.570;13.052;2023-06-24T05:21:43;3.67;;;2.80;;
23206;SDS011;11773;52.570;13.052;2023-06-24T05:24:13;2.87;;;2.67;;
23206;SDS011;11773;52.570;13.052;2023-06-24T05:26:44;3.27;;;2.97;;
23206;SDS011;11773;52.570;13.052;2023-06-24T05:29:17;3.77;;;3.40;;
23206;SDS011;11773;52.570;13.052;2023-06-24T05:31:46;3.53;;;3.03;;
23206;SDS011;11773;52.570;13.052;2023-06-24T05:34:16;3.07;;;2.87;;
23206;SDS011;11773;52.570;13.052;2023-06-24T05:36:46;3.47;;;3.17;;
23206;SDS011;11773;52.570;13.052;2023-06-24T05:39:16;3.07;;;2.87;;
23206;SDS011;11773;52.570;13.052;2023-06-24T05:41:46;3.80;;;3.50;;
23206;SDS011;11773;52.570;13.052;2023-06-24T05:44:18;3.30;;;3.10;;
23206;SDS011;11773;52.570;13.052;2023-06-24T05:46:50;3.20;;;3.00;;
23206;SDS011;11773;52.570;13.052;2023-06-24T05:49:19;3.33;;;3.07;;
23206;SDS011;11773;52.570;13.052;2023-06-24T05:51:49;2.77;;;2.57;;
23206;SDS011;11773;52.570;13.052;2023-06-24T05:54:19;3.13;;;2.87;;
23206;SDS011;11773;52.570;13.052;2023-06-24T05:56:48;3.07;;;2.87;;
23206;SDS011;11773;52.570;13.052;2023-06-24T05:59:18;2.70;;;2.50;;
23206;SDS011;11773;52.570;13.052;2023-06-24T06:01:48;3.40;;;3.10;;
23206;SDS011;11773;52.570;13.052;2023-06-24T06:04:17;3.00;;;2.80;;
23206;SDS011;11773;52.570;13.052;2023-06-24T06:06:47;3.33;;;2.90;;
23206;SDS011;11773;52.570;13.052;2023-06-24T06:09:17;2.97;;;2.70;;
23206;SDS011;11773;52.570;13.052;2023-06-24T06:11:47;2.60;;;2.40;;
23206;SDS011;11773;52.570;13.052;2023-06-24T06:14:17;2.80;;;2.60;;
23206;SDS011;11773;52.570;13.052;2023-06-24T06:16:46;3.30;;;3.00;;
23206;SDS011;11773;52.570;13.052;2023-06-24T06:19:16;2.90;;;2.70;;
23206;SDS011;11773;52.570;13.052;2023-06-24T06:21:46;3.00;;;2.80;;
23206;SDS011;11773;52.570;13.052;2023-06-24T06:24:16;3.50;;;2.90;;
23206;SDS011;11773;52.570;13.052;2023-06-24T06:26:46;2.90;;;2.60;;
23206;SDS011;11773;52.570;13.052;2023-06-24T06:29:16;2.63;;;2.43;;
23206;SDS011;11773;52.570;13.052;2023-06-24T06:31:45;3.10;;;2.80;;
23206;SDS011;11773;52.570;13.052;2023-06-24T06:34:15;2.73;;;2.53;;
23206;SDS011;11773;52.570;13.052;2023-06-24T06:36:44;3.30;;;3.00;;
23206;SDS011;11773;52.570;13.052;2023-06-24T06:39:14;3.20;;;3.00;;
23206;SDS011;11773;52.570;13.052;2023-06-24T06:41:43;3.07;;;2.77;;
23206;SDS011;11773;52.570;13.052;2023-06-24T06:44:13;2.97;;;2.77;;
23206;SDS011;11773;52.570;13.052;2023-06-24T06:46:43;2.73;;;2.53;;
23206;SDS011;11773;52.570;13.052;2023-06-24T06:49:12;3.00;;;2.80;;
23206;SDS011;11773;52.570;13.052;2023-06-24T06:51:42;2.73;;;2.53;;
23206;SDS011;11773;52.570;13.052;2023-06-24T06:54:11;2.93;;;2.73;;
23206;SDS011;11773;52.570;13.052;2023-06-24T06:56:41;2.80;;;2.60;;
23206;SDS011;11773;52.570;13.052;2023-06-24T06:59:11;2.80;;;2.60;;
23206;SDS011;11773;52.570;13.052;2023-06-24T07:01:40;2.70;;;2.50;;
23206;SDS011;11773;52.570;13.052;2023-06-24T07:04:10;2.63;;;2.43;;
23206;SDS011;11773;52.570;13.052;2023-06-24T07:06:40;3.33;;;3.07;;
23206;SDS011;11773;52.570;13.052;2023-06-24T07:09:09;2.80;;;2.60;;
23206;SDS011;11773;52.570;13.052;2023-06-24T07:11:39;2.27;;;2.17;;
23206;SDS011;11773;52.570;13.052;2023-06-24T07:14:09;2.67;;;2.47;;
23206;SDS011;11773;52.570;13.052;2023-06-24T07:16:38;2.80;;;2.43;;
23206;SDS011;11773;52.570;13.052;2023-06-24T07:19:08;2.33;;;2.20;;
23206;SDS011;11773;52.570;13.052;2023-06-24T07:21:38;2.43;;;2.23;;
23206;SDS011;11773;52.570;13.052;2023-06-24T07:24:07;2.47;;;2.27;;
23206;SDS011;11773;52.570;13.052;2023-06-24T07:26:37;2.50;;;2.30;;
23206;SDS011;11773;52.570;13.052;2023-06-24T07:29:07;2.80;;;2.60;;
23206;SDS011;11773;52.570;13.052;2023-06-24T07:31:37;2.20;;;2.10;;
23206;SDS011;11773;52.570;13.052;2023-06-24T07:34:06;2.83;;;2.57;;
23206;SDS011;11773;52.570;13.052;2023-06-24T07:36:36;2.13;;;1.93;;
23206;SDS011;11773;52.570;13.052;2023-06-24T07:39:05;2.60;;;2.40;;
23206;SDS011;11773;52.570;13.052;2023-06-24T07:41:35;2.60;;;2.40;;
23206;SDS011;11773;52.570;13.052;2023-06-24T07:44:06;2.73;;;2.53;;
23206;SDS011;11773;52.570;13.052;2023-06-24T07:46:35;2.40;;;2.20;;
23206;SDS011;11773;52.570;13.052;2023-06-24T07:49:05;2.70;;;2.50;;
23206;SDS011;11773;52.570;13.052;2023-06-24T07:51:34;2.20;;;2.10;;
23206;SDS011;11773;52.570;13.052;2023-06-24T07:54:04;2.47;;;2.30;;
23206;SDS011;11773;52.570;13.052;2023-06-24T07:56:33;2.37;;;2.17;;
23206;SDS011;11773;52.570;13.052;2023-06-24T07:59:03;2.23;;;2.03;;
23206;SDS011;11773;52.570;13.052;2023-06-24T08:01:33;2.07;;;1.97;;
23206;SDS011;11773;52.570;13.052;2023-06-24T08:04:02;2.37;;;2.23;;
23206;SDS011;11773;52.570;13.052;2023-06-24T08:06:32;2.20;;;2.10;;
23206;SDS011;11773;52.570;13.052;2023-06-24T08:09:01;2.33;;;2.20;;
23206;SDS011;11773;52.570;13.052;2023-06-24T08:11:31;2.70;;;2.50;;
23206;SDS011;11773;52.570;13.052;2023-06-24T08:14:01;2.30;;;2.20;;
23206;SDS011;11773;52.570;13.052;2023-06-24T08:16:31;2.47;;;2.10;;
23206;SDS011;11773;52.570;13.052;2023-06-24T08:19:00;1.93;;;1.83;;
23206;SDS011;11773;52.570;13.052;2023-06-24T08:21:30;2.40;;;2.10;;
23206;SDS011;11773;52.570;13.052;2023-06-24T08:24:01;1.87;;;1.77;;
23206;SDS011;11773;52.570;13.052;2023-06-24T08:26:32;1.90;;;1.80;;
23206;SDS011;11773;52.570;13.052;2023-06-24T08:29:01;1.67;;;1.57;;
23206;SDS011;11773;52.570;13.052;2023-06-24T08:31:31;1.93;;;1.83;;
23206;SDS011;11773;52.570;13.052;2023-06-24T08:34:01;1.87;;;1.77;;
23206;SDS011;11773;52.570;13.052;2023-06-24T08:36:33;1.67;;;1.57;;
23206;SDS011;11773;52.570;13.052;2023-06-24T08:39:04;1.67;;;1.57;;
23206;SDS011;11773;52.570;13.052;2023-06-24T08:41:35;1.67;;;1.57;;
23206;SDS011;11773;52.570;13.052;2023-06-24T08:44:05;1.80;;;1.70;;
23206;SDS011;11773;52.570;13.052;2023-06-24T08:46:35;1.80;;;1.70;;
23206;SDS011;11773;52.570;13.052;2023-06-24T08:52:08;2.30;;;2.10;;
23206;SDS011;11773;52.570;13.052;2023-06-24T08:54:49;2.43;;;2.30;;
23206;SDS011;11773;52.570;13.052;2023-06-24T08:57:19;2.13;;;1.93;;
23206;SDS011;11773;52.570;13.052;2023-06-24T08:59:49;1.63;;;1.53;;
23206;SDS011;11773;52.570;13.052;2023-06-24T09:02:19;1.70;;;1.60;;
23206;SDS011;11773;52.570;13.052;2023-06-24T09:04:50;1.93;;;1.83;;
23206;SDS011;11773;52.570;13.052;2023-06-24T09:07:25;1.67;;;1.57;;
23206;SDS011;11773;52.570;13.052;2023-06-24T09:09:56;2.00;;;1.90;;
23206;SDS011;11773;52.570;13.052;2023-06-24T09:12:27;2.03;;;1.83;;
23206;SDS011;11773;52.570;13.052;2023-06-24T09:15:02;2.10;;;1.90;;
23206;SDS011;11773;52.570;13.052;2023-06-24T09:17:32;1.90;;;1.80;;
23206;SDS011;11773;52.570;13.052;2023-06-24T09:20:05;1.90;;;1.80;;
23206;SDS011;11773;52.570;13.052;2023-06-24T09:22:36;2.13;;;1.90;;
23206;SDS011;11773;52.570;13.052;2023-06-24T09:25:09;1.90;;;1.80;;
23206;SDS011;11773;52.570;13.052;2023-06-24T09:27:41;1.93;;;1.83;;
23206;SDS011;11773;52.570;13.052;2023-06-24T09:30:23;2.13;;;2.00;;
23206;SDS011;11773;52.570;13.052;2023-06-24T09:32:53;2.23;;;1.63;;
23206;SDS011;11773;52.570;13.052;2023-06-24T09:35:25;9.27;;;2.47;;
23206;SDS011;11773;52.570;13.052;2023-06-24T09:37:57;1.73;;;1.63;;
23206;SDS011;11773;52.570;13.052;2023-06-24T09:40:27;3.23;;;1.87;;
23206;SDS011;11773;52.570;13.052;2023-06-24T09:42:58;2.67;;;1.90;;
23206;SDS011;11773;52.570;13.052;2023-06-24T09:45:31;2.50;;;2.30;;
23206;SDS011;11773;52.570;13.052;2023-06-24T09:48:01;2.00;;;1.90;;
23206;SDS011;11773;52.570;13.052;2023-06-24T09:50:31;2.50;;;2.30;;
23206;SDS011;11773;52.570;13.052;2023-06-24T09:53:02;2.13;;;2.03;;
23206;SDS011;11773;52.570;13.052;2023-06-24T09:55:32;1.70;;;1.60;;
23206;SDS011;11773;52.570;13.052;2023-06-24T09:58:03;1.63;;;1.53;;
23206;SDS011;11773;52.570;13.052;2023-06-24T10:00:32;1.60;;;1.50;;
23206;SDS011;11773;52.570;13.052;2023-06-24T10:03:08;1.63;;;1.53;;
23206;SDS011;11773;52.570;13.052;2023-06-24T10:05:39;1.87;;;1.77;;
23206;SDS011;11773;52.570;13.052;2023-06-24T10:08:10;1.87;;;1.77;;
23206;SDS011;11773;52.570;13.052;2023-06-24T10:10:42;1.70;;;1.60;;
23206;SDS011;11773;52.570;13.052;2023-06-24T10:13:12;10.47;;;3.10;;
23206;SDS011;11773;52.570;13.052;2023-06-24T10:15:42;5.40;;;2.47;;
23206;SDS011;11773;52.570;13.052;2023-06-24T10:21:08;2.10;;;1.90;;
23206;SDS011;11773;52.570;13.052;2023-06-24T10:23:42;21.20;;;4.20;;
23206;SDS011;11773;52.570;13.052;2023-06-24T10:26:29;9.00;;;3.43;;
23206;SDS011;11773;52.570;13.052;2023-06-24T10:37:08;1.83;;;1.73;;
23206;SDS011;11773;52.570;13.052;2023-06-24T10:39:47;1.70;;;1.60;;
23206;SDS011;11773;52.570;13.052;2023-06-24T10:47:49;1.50;;;1.40;;
23206;SDS011;11773;52.570;13.052;2023-06-24T10:50:20;1.90;;;1.80;;
23206;SDS011;11773;52.570;13.052;2023-06-24T10:52:53;1.70;;;1.60;;
23206;SDS011;11773;52.570;13.052;2023-06-24T10:55:24;1.57;;;1.47;;
23206;SDS011;11773;52.570;13.052;2023-06-24T10:57:54;1.90;;;1.80;;
23206;SDS011;11773;52.570;13.052;2023-06-24T11:00:40;1.90;;;1.80;;
23206;SDS011;11773;52.570;13.052;2023-06-24T11:03:15;1.90;;;1.70;;
23206;SDS011;11773;52.570;13.052;2023-06-24T11:05:49;1.30;;;1.30;;
23206;SDS011;11773;52.570;13.052;2023-06-24T11:08:20;1.60;;;1.50;;
23206;SDS011;11773;52.570;13.052;2023-06-24T11:10:51;1.60;;;1.50;;
23206;SDS011;11773;52.570;13.052;2023-06-24T11:13:21;1.73;;;1.63;;
23206;SDS011;11773;52.570;13.052;2023-06-24T11:15:50;1.60;;;1.50;;
23206;SDS011;11773;52.570;13.052;2023-06-24T11:18:20;1.30;;;1.30;;
23206;SDS011;11773;52.570;13.052;2023-06-24T11:20:53;2.07;;;1.97;;
23206;SDS011;11773;52.570;13.052;2023-06-24T11:23:22;2.10;;;1.90;;
23206;SDS011;11773;52.570;13.052;2023-06-24T11:25:51;1.63;;;1.53;;
23206;SDS011;11773;52.570;13.052;2023-06-24T11:28:23;1.80;;;1.70;;
23206;SDS011;11773;52.570;13.052;2023-06-24T11:30:53;1.60;;;1.50;;
23206;SDS011;11773;52.570;13.052;2023-06-24T11:33:26;1.70;;;1.60;;
23206;SDS011;11773;52.570;13.052;2023-06-24T11:35:56;1.90;;;1.80;;
23206;SDS011;11773;52.570;13.052;2023-06-24T11:38:27;1.80;;;1.70;;
23206;SDS011;11773;52.570;13.052;2023-06-24T11:40:59;1.63;;;1.53;;
23206;SDS011;11773;52.570;13.052;2023-06-24T11:43:28;1.43;;;1.33;;
23206;SDS011;11773;52.570;13.052;2023-06-24T11:45:58;1.67;;;1.57;;
23206;SDS011;11773;52.570;13.052;2023-06-24T11:48:28;1.70;;;1.60;;
23206;SDS011;11773;52.570;13.052;2023-06-24T11:50:59;1.83;;;1.73;;
23206;SDS011;11773;52.570;13.052;2023-06-24T11:53:40;1.97;;;1.87;;
23206;SDS011;11773;52.570;13.052;2023-06-24T11:56:14;1.70;;;1.60;;
23206;SDS011;11773;52.570;13.052;2023-06-24T11:58:47;2.03;;;1.37;;
23206;SDS011;11773;52.570;13.052;2023-06-24T12:01:18;1.60;;;1.50;;
23206;SDS011;11773;52.570;13.052;2023-06-24T12:03:47;1.80;;;1.70;;
23206;SDS011;11773;52.570;13.052;2023-06-24T12:06:17;1.43;;;1.33;;
23206;SDS011;11773;52.570;13.052;2023-06-24T12:08:48;1.57;;;1.47;;
23206;SDS011;11773;52.570;13.052;2023-06-24T12:11:18;1.67;;;1.57;;
23206;SDS011;11773;52.570;13.052;2023-06-24T12:13:48;1.27;;;1.27;;
23206;SDS011;11773;52.570;13.052;2023-06-24T12:16:18;1.50;;;1.40;;
23206;SDS011;11773;52.570;13.052;2023-06-24T12:18:47;1.30;;;1.30;;
23206;SDS011;11773;52.570;13.052;2023-06-24T12:21:17;1.67;;;1.57;;
23206;SDS011;11773;52.570;13.052;2023-06-24T12:23:47;1.27;;;1.23;;
23206;SDS011;11773;52.570;13.052;2023-06-24T12:26:17;1.80;;;1.70;;
23206;SDS011;11773;52.570;13.052;2023-06-24T12:28:46;1.97;;;1.80;;
23206;SDS011;11773;52.570;13.052;2023-06-24T12:31:16;1.60;;;1.50;;
23206;SDS011;11773;52.570;13.052;2023-06-24T12:33:46;1.87;;;1.77;;
23206;SDS011;11773;52.570;13.052;2023-06-24T12:36:15;1.87;;;1.77;;
23206;SDS011;11773;52.570;13.052;2023-06-24T12:38:47;1.70;;;1.60;;
23206;SDS011;11773;52.570;13.052;2023-06-24T12:41:16;1.50;;;1.40;;
23206;SDS011;11773;52.570;13.052;2023-06-24T12:43:46;1.70;;;1.60;;
23206;SDS011;11773;52.570;13.052;2023-06-24T12:46:15;1.43;;;1.40;;
23206;SDS011;11773;52.570;13.052;2023-06-24T12:48:45;1.67;;;1.57;;
23206;SDS011;11773;52.570;13.052;2023-06-24T12:51:15;1.50;;;1.40;;
23206;SDS011;11773;52.570;13.052;2023-06-24T12:53:44;1.70;;;1.60;;
23206;SDS011;11773;52.570;13.052;2023-06-24T12:56:14;1.60;;;1.50;;
23206;SDS011;11773;52.570;13.052;2023-06-24T12:58:44;1.57;;;1.47;;
23206;SDS011;11773;52.570;13.052;2023-06-24T13:01:14;1.40;;;1.30;;
23206;SDS011;11773;52.570;13.052;2023-06-24T13:03:45;1.73;;;1.63;;
23206;SDS011;11773;52.570;13.052;2023-06-24T13:06:14;1.83;;;1.73;;
23206;SDS011;11773;52.570;13.052;2023-06-24T13:08:44;2.10;;;2.00;;
23206;SDS011;11773;52.570;13.052;2023-06-24T13:11:14;1.40;;;1.30;;
23206;SDS011;11773;52.570;13.052;2023-06-24T13:13:43;1.20;;;1.20;;
23206;SDS011;11773;52.570;13.052;2023-06-24T13:16:13;1.70;;;1.60;;
23206;SDS011;11773;52.570;13.052;2023-06-24T13:18:42;1.30;;;1.20;;
23206;SDS011;11773;52.570;13.052;2023-06-24T13:21:12;1.70;;;1.60;;
23206;SDS011;11773;52.570;13.052;2023-06-24T13:23:42;1.50;;;1.40;;
23206;SDS011;11773;52.570;13.052;2023-06-24T13:26:13;1.80;;;1.70;;
23206;SDS011;11773;52.570;13.052;2023-06-24T13:28:43;1.40;;;1.30;;
23206;SDS011;11773;52.570;13.052;2023-06-24T13:31:12;1.47;;;1.40;;
23206;SDS011;11773;52.570;13.052;2023-06-24T13:33:43;1.43;;;1.33;;
23206;SDS011;11773;52.570;13.052;2023-06-24T13:36:27;1.33;;;1.30;;
23206;SDS011;11773;52.570;13.052;2023-06-24T13:39:07;1.53;;;1.43;;
23206;SDS011;11773;52.570;13.052;2023-06-24T13:41:40;1.70;;;1.60;;
23206;SDS011;11773;52.570;13.052;2023-06-24T13:44:10;2.10;;;1.70;;
23206;SDS011;11773;52.570;13.052;2023-06-24T13:46:40;1.90;;;1.80;;
23206;SDS011;11773;52.570;13.052;2023-06-24T13:49:10;2.10;;;2.00;;
23206;SDS011;11773;52.570;13.052;2023-06-24T13:51:40;2.13;;;2.03;;
23206;SDS011;11773;52.570;13.052;2023-06-24T13:54:10;1.83;;;1.67;;
23206;SDS011;11773;52.570;13.052;2023-06-24T13:56:39;1.80;;;1.70;;
23206;SDS011;11773;52.570;13.052;2023-06-24T13:59:09;1.43;;;1.33;;
23206;SDS011;11773;52.570;13.052;2023-06-24T14:01:38;1.80;;;1.70;;
23206;SDS011;11773;52.570;13.052;2023-06-24T14:04:08;1.60;;;1.43;;
23206;SDS011;11773;52.570;13.052;2023-06-24T14:06:38;2.17;;;2.03;;
23206;SDS011;11773;52.570;13.052;2023-06-24T14:09:07;1.73;;;1.63;;
23206;SDS011;11773;52.570;13.052;2023-06-24T14:11:38;1.70;;;1.60;;
23206;SDS011;11773;52.570;13.052;2023-06-24T14:14:08;1.50;;;1.40;;
23206;SDS011;11773;52.570;13.052;2023-06-24T14:16:38;1.53;;;1.33;;
23206;SDS011;11773;52.570;13.052;2023-06-24T14:19:07;1.50;;;1.40;;
23206;SDS011;11773;52.570;13.052;2023-06-24T14:21:37;1.27;;;1.27;;
23206;SDS011;11773;52.570;13.052;2023-06-24T14:24:07;1.43;;;1.33;;
23206;SDS011;11773;52.570;13.052;2023-06-24T14:26:40;2.27;;;2.10;;
23206;SDS011;11773;52.570;13.052;2023-06-24T14:29:09;1.50;;;1.40;;
23206;SDS011;11773;52.570;13.052;2023-06-24T14:31:39;3.37;;;1.80;;
23206;SDS011;11773;52.570;13.052;2023-06-24T14:34:08;1.60;;;1.50;;
23206;SDS011;11773;52.570;13.052;2023-06-24T14:36:38;1.60;;;1.50;;
23206;SDS011;11773;52.570;13.052;2023-06-24T14:39:08;1.60;;;1.50;;
23206;SDS011;11773;52.570;13.052;2023-06-24T14:41:39;1.77;;;1.67;;
23206;SDS011;11773;52.570;13.052;2023-06-24T14:44:09;2.33;;;1.73;;
23206;SDS011;11773;52.570;13.052;2023-06-24T14:46:38;1.73;;;1.63;;
23206;SDS011;11773;52.570;13.052;2023-06-24T14:49:08;1.27;;;1.27;;
23206;SDS011;11773;52.570;13.052;2023-06-24T14:51:38;1.77;;;1.67;;
23206;SDS011;11773;52.570;13.052;2023-06-24T14:54:07;1.60;;;1.50;;
23206;SDS011;11773;52.570;13.052;2023-06-24T14:56:37;1.70;;;1.60;;
23206;SDS011;11773;52.570;13.052;2023-06-24T14:59:07;1.70;;;1.60;;
23206;SDS011;11773;52.570;13.052;2023-06-24T15:01:36;1.37;;;1.30;;
23206;SDS011;11773;52.570;13.052;2023-06-24T15:04:06;1.50;;;1.40;;
23206;SDS011;11773;52.570;13.052;2023-06-24T15:06:35;1.90;;;1.80;;
23206;SDS011;11773;52.570;13.052;2023-06-24T15:09:05;1.77;;;1.67;;
23206;SDS011;11773;52.570;13.052;2023-06-24T15:11:35;1.77;;;1.67;;
23206;SDS011;11773;52.570;13.052;2023-06-24T15:14:04;1.30;;;1.30;;
23206;SDS011;11773;52.570;13.052;2023-06-24T15:16:34;1.47;;;1.37;;
23206;SDS011;11773;52.570;13.052;2023-06-24T15:19:03;1.53;;;1.43;;